Tompa, Hungary
Current Conditions -  °F | °C
As of 4:45 AM on Sunday 26 Oct 2014 (Local Time) from LHUD Reporting Station
Haze Haze  
Wind Chill: 40°   Ceiling: 2000
Heat Index: 43°   Visibility: 2.5mi
Dew Point: 41°   Wind: 5mph
Humidity: 93%   Direction: 160°SSE
Pressure: 30.36"   Gusts: NA
Location:  46.21°N, 19.54°E
Report Text: LHUD 260245Z 16004KT 4000 BR BKN020 06/05 Q1028
Loading
Personal Weather Stations






























Interactive Weather Map
Tropical Storm Tracking
New forecast layout! Learn more

10-Day Weather Forecast

Advertisements
Track Severe Weather on mobile